Terminal Aerodrome Forecast
Issued by NWS

Home | Current Version | Previous Version | Text Only | Print | Product List | Glossary On
Versions: 1 2 3 4 5 6 7 8 9 10 11 12 13 14 15
561
FTUS42 KTAE 292320
TAFVLD
TAF
KVLD 292320Z 3000/3024 VRB05KT P6SM SCT040
     FM300900 14005KT 6SM BR BKN015
     FM301200 13008KT P6SM BKN015
     FM301500 15012KT P6SM BKN025
     FM301800 16013KT P6SM BKN050=

USA.gov is the U.S. government's official web portal to all federal, state and local government web resources and services.